Weather at Bangor International Airport

Public forecast

Using degrees Fahrenheit for public forecast. Weather courtesy of forecast.io.

Current aviation weather report (METAR) for Bangor International Airport

2024/05/25 22:53 (retrieved 48 minutes ago)

KBGR 252253Z 18009KT 10SM FEW080 OVC250 20/09 A2981 RMK AO2 SLP093 T02000089

Aviation forecast (TAF) for Bangor International Airport

2024/05/25 18:22 (retrieved 5 hours ago)

TAF KBGR 251720Z 2518/2618 30009G17KT P6SM SCT050 FM252300 VRB04KT P6SM SKC FM261400 VRB03KT P6SM VCSH BKN028